Terminal Aerodrome Forecast
Issued by NWS Huntsville, AL

Home | Current Version | Previous Version | Text Only | Print | Product List | Glossary On
Versions: 1 2 3 4 5 6 7 8 9 10 11 12 13 14 15 16 17 18 19 20 21 22 23 24 25 26 27 28 29 30
524
FTUS44 KHUN 302005 AAA
TAFMSL
TAF AMD
KMSL 302005Z 3020/0118 19010KT P6SM VCTS SCT040CB OVC130
      TEMPO 3020/3021 3SM TSRA OVC030CB
     FM302100 20015G25KT P6SM BKN040
     FM010300 23014KT 6SM -SHRA OVC015
     FM010800 21012KT P6SM SCT030 BKN100
     FM011400 23019G28KT P6SM SCT250=

USA.gov is the U.S. government's official web portal to all federal, state and local government web resources and services.